sensor_id;sensor_type;location;lat;lon;timestamp;pressure;altitude;pressure_sealevel;temperature;humidity
73817;BME280;62146;53.232;-1.304;2023-04-21T00:00:52;100960.84;;;10.36;100.00
73817;BME280;62146;53.232;-1.304;2023-04-21T00:03:19;100959.66;;;10.32;100.00
73817;BME280;62146;53.232;-1.304;2023-04-21T00:05:49;100953.19;;;10.28;100.00
73817;BME280;62146;53.232;-1.304;2023-04-21T00:08:16;100956.84;;;10.27;100.00
73817;BME280;62146;53.232;-1.304;2023-04-21T00:10:44;100945.69;;;10.25;100.00
73817;BME280;62146;53.232;-1.304;2023-04-21T00:13:12;100937.38;;;10.22;100.00
73817;BME280;62146;53.232;-1.304;2023-04-21T00:15:39;100955.13;;;10.21;100.00
73817;BME280;62146;53.232;-1.304;2023-04-21T00:18:06;100946.13;;;10.22;100.00
73817;BME280;62146;53.232;-1.304;2023-04-21T00:20:34;100948.19;;;10.20;100.00
73817;BME280;62146;53.232;-1.304;2023-04-21T00:23:01;100947.38;;;10.20;100.00
73817;BME280;62146;53.232;-1.304;2023-04-21T00:25:28;100943.91;;;10.19;100.00
73817;BME280;62146;53.232;-1.304;2023-04-21T00:27:55;100945.19;;;10.17;100.00
73817;BME280;62146;53.232;-1.304;2023-04-21T00:30:22;100937.81;;;10.19;100.00
73817;BME280;62146;53.232;-1.304;2023-04-21T00:32:49;100944.34;;;10.16;100.00
73817;BME280;62146;53.232;-1.304;2023-04-21T00:35:16;100941.94;;;10.15;100.00
73817;BME280;62146;53.232;-1.304;2023-04-21T00:37:42;100939.06;;;10.16;100.00
73817;BME280;62146;53.232;-1.304;2023-04-21T00:40:09;100935.47;;;10.11;100.00
73817;BME280;62146;53.232;-1.304;2023-04-21T00:42:36;100932.03;;;10.11;100.00
73817;BME280;62146;53.232;-1.304;2023-04-21T00:45:03;100923.84;;;10.12;100.00
73817;BME280;62146;53.232;-1.304;2023-04-21T00:47:30;100932.59;;;10.13;100.00
73817;BME280;62146;53.232;-1.304;2023-04-21T00:49:57;100921.19;;;10.12;100.00
73817;BME280;62146;53.232;-1.304;2023-04-21T00:52:25;100917.16;;;10.10;100.00
73817;BME280;62146;53.232;-1.304;2023-04-21T00:54:52;100914.72;;;10.08;100.00
73817;BME280;62146;53.232;-1.304;2023-04-21T00:57:19;100919.66;;;10.05;100.00
73817;BME280;62146;53.232;-1.304;2023-04-21T00:59:46;100898.09;;;10.01;100.00
73817;BME280;62146;53.232;-1.304;2023-04-21T01:02:14;100918.47;;;10.01;100.00
73817;BME280;62146;53.232;-1.304;2023-04-21T01:04:42;100914.66;;;9.97;100.00
73817;BME280;62146;53.232;-1.304;2023-04-21T01:07:11;100926.28;;;9.96;100.00
73817;BME280;62146;53.232;-1.304;2023-04-21T01:09:38;100913.03;;;9.96;100.00
73817;BME280;62146;53.232;-1.304;2023-04-21T01:12:07;100912.59;;;9.99;100.00
73817;BME280;62146;53.232;-1.304;2023-04-21T01:14:39;100912.47;;;9.94;100.00
73817;BME280;62146;53.232;-1.304;2023-04-21T01:17:06;100914.28;;;9.93;100.00
73817;BME280;62146;53.232;-1.304;2023-04-21T01:19:41;100911.31;;;9.90;100.00
73817;BME280;62146;53.232;-1.304;2023-04-21T01:22:09;100900.09;;;9.88;100.00
73817;BME280;62146;53.232;-1.304;2023-04-21T01:24:38;100909.09;;;9.87;100.00
73817;BME280;62146;53.232;-1.304;2023-04-21T01:27:13;100907.44;;;9.86;100.00
73817;BME280;62146;53.232;-1.304;2023-04-21T01:29:41;100913.75;;;9.85;100.00
73817;BME280;62146;53.232;-1.304;2023-04-21T01:32:12;100898.09;;;9.84;100.00
73817;BME280;62146;53.232;-1.304;2023-04-21T01:34:39;100895.66;;;9.82;100.00
73817;BME280;62146;53.232;-1.304;2023-04-21T01:37:11;100901.78;;;9.83;100.00
73817;BME280;62146;53.232;-1.304;2023-04-21T01:39:43;100901.41;;;9.79;100.00
73817;BME280;62146;53.232;-1.304;2023-04-21T01:42:10;100889.78;;;9.80;100.00
73817;BME280;62146;53.232;-1.304;2023-04-21T01:44:37;100888.19;;;9.79;100.00
73817;BME280;62146;53.232;-1.304;2023-04-21T01:47:03;100892.66;;;9.79;100.00
73817;BME280;62146;53.232;-1.304;2023-04-21T01:49:30;100882.50;;;9.76;100.00
73817;BME280;62146;53.232;-1.304;2023-04-21T01:51:57;100880.06;;;9.74;100.00
73817;BME280;62146;53.232;-1.304;2023-04-21T01:54:24;100878.25;;;9.75;100.00
73817;BME280;62146;53.232;-1.304;2023-04-21T01:56:50;100873.97;;;9.74;100.00
73817;BME280;62146;53.232;-1.304;2023-04-21T01:59:17;100864.41;;;9.73;100.00
73817;BME280;62146;53.232;-1.304;2023-04-21T02:01:44;100855.88;;;9.71;100.00
73817;BME280;62146;53.232;-1.304;2023-04-21T02:04:10;100861.16;;;9.71;100.00
73817;BME280;62146;53.232;-1.304;2023-04-21T02:06:37;100857.34;;;9.67;100.00
73817;BME280;62146;53.232;-1.304;2023-04-21T02:09:04;100839.84;;;9.66;100.00
73817;BME280;62146;53.232;-1.304;2023-04-21T02:11:30;100843.53;;;9.65;100.00
73817;BME280;62146;53.232;-1.304;2023-04-21T02:13:57;100832.34;;;9.63;100.00
73817;BME280;62146;53.232;-1.304;2023-04-21T02:16:23;100828.09;;;9.62;100.00
73817;BME280;62146;53.232;-1.304;2023-04-21T02:18:52;100838.66;;;9.62;100.00
73817;BME280;62146;53.232;-1.304;2023-04-21T02:21:20;100833.81;;;9.59;100.00
73817;BME280;62146;53.232;-1.304;2023-04-21T02:23:47;100832.22;;;9.58;100.00
73817;BME280;62146;53.232;-1.304;2023-04-21T02:26:13;100821.41;;;9.60;100.00
73817;BME280;62146;53.232;-1.304;2023-04-21T02:28:40;100812.06;;;9.57;100.00
73817;BME280;62146;53.232;-1.304;2023-04-21T02:31:07;100807.81;;;9.56;100.00
73817;BME280;62146;53.232;-1.304;2023-04-21T02:33:34;100805.97;;;9.57;100.00
73817;BME280;62146;53.232;-1.304;2023-04-21T02:36:02;100796.19;;;9.57;100.00
73817;BME280;62146;53.232;-1.304;2023-04-21T02:38:28;100793.53;;;9.57;100.00
73817;BME280;62146;53.232;-1.304;2023-04-21T02:40:56;100786.38;;;9.58;100.00
73817;BME280;62146;53.232;-1.304;2023-04-21T02:43:23;100797.22;;;9.56;100.00
73817;BME280;62146;53.232;-1.304;2023-04-21T02:45:50;100790.66;;;9.59;100.00
73817;BME280;62146;53.232;-1.304;2023-04-21T02:48:17;100792.72;;;9.57;100.00
73817;BME280;62146;53.232;-1.304;2023-04-21T02:50:49;100786.63;;;9.56;100.00
73817;BME280;62146;53.232;-1.304;2023-04-21T02:53:15;100794.34;;;9.58;100.00
73817;BME280;62146;53.232;-1.304;2023-04-21T02:55:42;100783.75;;;9.58;100.00
73817;BME280;62146;53.232;-1.304;2023-04-21T02:58:09;100781.09;;;9.58;100.00
73817;BME280;62146;53.232;-1.304;2023-04-21T03:00:36;100778.69;;;9.56;100.00
73817;BME280;62146;53.232;-1.304;2023-04-21T03:03:03;100775.19;;;9.56;100.00
73817;BME280;62146;53.232;-1.304;2023-04-21T03:05:30;100768.91;;;9.57;100.00
73817;BME280;62146;53.232;-1.304;2023-04-21T03:07:56;100771.53;;;9.57;100.00
73817;BME280;62146;53.232;-1.304;2023-04-21T03:10:23;100769.09;;;9.55;100.00
73817;BME280;62146;53.232;-1.304;2023-04-21T03:12:50;100757.72;;;9.55;100.00
73817;BME280;62146;53.232;-1.304;2023-04-21T03:15:16;100763.25;;;9.53;100.00
73817;BME280;62146;53.232;-1.304;2023-04-21T03:17:44;100760.59;;;9.53;100.00
73817;BME280;62146;53.232;-1.304;2023-04-21T03:20:11;100750.81;;;9.54;100.00
73817;BME280;62146;53.232;-1.304;2023-04-21T03:22:38;100763.00;;;9.55;100.00
73817;BME280;62146;53.232;-1.304;2023-04-21T03:25:05;100759.78;;;9.53;100.00
73817;BME280;62146;53.232;-1.304;2023-04-21T03:27:33;100749.19;;;9.53;100.00
73817;BME280;62146;53.232;-1.304;2023-04-21T03:30:00;100750.00;;;9.53;100.00
73817;BME280;62146;53.232;-1.304;2023-04-21T03:32:27;100742.06;;;9.53;100.00
73817;BME280;62146;53.232;-1.304;2023-04-21T03:34:54;100745.50;;;9.54;100.00
73817;BME280;62146;53.232;-1.304;2023-04-21T03:37:20;100739.41;;;9.53;100.00
73817;BME280;62146;53.232;-1.304;2023-04-21T03:39:47;100734.94;;;9.54;100.00
73817;BME280;62146;53.232;-1.304;2023-04-21T03:42:14;100732.50;;;9.52;100.00
73817;BME280;62146;53.232;-1.304;2023-04-21T03:44:40;100719.84;;;9.54;100.00
73817;BME280;62146;53.232;-1.304;2023-04-21T03:47:07;100715.00;;;9.51;100.00
73817;BME280;62146;53.232;-1.304;2023-04-21T03:49:33;100699.34;;;9.50;100.00
73817;BME280;62146;53.232;-1.304;2023-04-21T03:52:00;100688.75;;;9.50;100.00
73817;BME280;62146;53.232;-1.304;2023-04-21T03:54:27;100691.41;;;9.50;100.00
73817;BME280;62146;53.232;-1.304;2023-04-21T03:56:53;100681.63;;;9.50;100.00
73817;BME280;62146;53.232;-1.304;2023-04-21T03:59:20;100676.56;;;9.49;100.00
73817;BME280;62146;53.232;-1.304;2023-04-21T04:01:47;100672.28;;;9.48;100.00
73817;BME280;62146;53.232;-1.304;2023-04-21T04:04:13;100671.47;;;9.47;100.00
73817;BME280;62146;53.232;-1.304;2023-04-21T04:06:41;100659.03;;;9.48;100.00
73817;BME280;62146;53.232;-1.304;2023-04-21T04:09:07;100651.56;;;9.45;100.00
73817;BME280;62146;53.232;-1.304;2023-04-21T04:11:34;100632.25;;;9.44;100.00
73817;BME280;62146;53.232;-1.304;2023-04-21T04:14:01;100624.50;;;9.43;100.00
73817;BME280;62146;53.232;-1.304;2023-04-21T04:16:27;100620.25;;;9.42;100.00
73817;BME280;62146;53.232;-1.304;2023-04-21T04:18:54;100607.03;;;9.42;100.00
73817;BME280;62146;53.232;-1.304;2023-04-21T04:21:21;100606.78;;;9.43;100.00
73817;BME280;62146;53.232;-1.304;2023-04-21T04:23:51;100596.44;;;9.42;100.00
73817;BME280;62146;53.232;-1.304;2023-04-21T04:26:18;100595.41;;;9.43;100.00
73817;BME280;62146;53.232;-1.304;2023-04-21T04:28:45;100589.53;;;9.41;100.00
73817;BME280;62146;53.232;-1.304;2023-04-21T04:31:11;100576.88;;;9.43;100.00
73817;BME280;62146;53.232;-1.304;2023-04-21T04:33:43;100577.91;;;9.42;100.00
73817;BME280;62146;53.232;-1.304;2023-04-21T04:36:09;100570.78;;;9.42;100.00
73817;BME280;62146;53.232;-1.304;2023-04-21T04:38:37;100568.94;;;9.43;100.00
73817;BME280;62146;53.232;-1.304;2023-04-21T04:41:04;100568.13;;;9.42;100.00
73817;BME280;62146;53.232;-1.304;2023-04-21T04:43:31;100563.88;;;9.41;100.00
73817;BME280;62146;53.232;-1.304;2023-04-21T04:46:07;100571.00;;;9.41;100.00
73817;BME280;62146;53.232;-1.304;2023-04-21T04:48:34;100569.97;;;9.42;100.00
73817;BME280;62146;53.232;-1.304;2023-04-21T04:51:01;100567.09;;;9.43;100.00
73817;BME280;62146;53.232;-1.304;2023-04-21T04:53:28;100563.63;;;9.43;100.00
73817;BME280;62146;53.232;-1.304;2023-04-21T04:55:54;100551.44;;;9.42;100.00
73817;BME280;62146;53.232;-1.304;2023-04-21T04:58:22;100547.75;;;9.43;100.00
73817;BME280;62146;53.232;-1.304;2023-04-21T05:00:49;100541.66;;;9.42;100.00
73817;BME280;62146;53.232;-1.304;2023-04-21T05:03:16;100540.41;;;9.45;100.00
73817;BME280;62146;53.232;-1.304;2023-04-21T05:05:43;100531.66;;;9.44;100.00
73817;BME280;62146;53.232;-1.304;2023-04-21T05:08:11;100536.13;;;9.44;100.00
73817;BME280;62146;53.232;-1.304;2023-04-21T05:10:39;100534.88;;;9.46;100.00
73817;BME280;62146;53.232;-1.304;2023-04-21T05:13:05;100524.03;;;9.48;100.00
73817;BME280;62146;53.232;-1.304;2023-04-21T05:15:32;100518.53;;;9.49;100.00
73817;BME280;62146;53.232;-1.304;2023-04-21T05:17:58;100517.50;;;9.50;100.00
73817;BME280;62146;53.232;-1.304;2023-04-21T05:20:25;100511.41;;;9.50;100.00
73817;BME280;62146;53.232;-1.304;2023-04-21T05:22:52;100527.84;;;9.52;100.00
73817;BME280;62146;53.232;-1.304;2023-04-21T05:25:18;100506.66;;;9.52;100.00
73817;BME280;62146;53.232;-1.304;2023-04-21T05:27:45;100513.00;;;9.51;100.00
73817;BME280;62146;53.232;-1.304;2023-04-21T05:30:11;100499.31;;;9.54;100.00
73817;BME280;62146;53.232;-1.304;2023-04-21T05:32:38;100492.97;;;9.55;100.00
73817;BME280;62146;53.232;-1.304;2023-04-21T05:35:05;100499.88;;;9.56;100.00
73817;BME280;62146;53.232;-1.304;2023-04-21T05:37:32;100485.03;;;9.55;100.00
73817;BME280;62146;53.232;-1.304;2023-04-21T05:39:58;100483.53;;;9.59;100.00
73817;BME280;62146;53.232;-1.304;2023-04-21T05:42:25;100494.72;;;9.61;100.00
73817;BME280;62146;53.232;-1.304;2023-04-21T05:44:52;100490.22;;;9.61;100.00
73817;BME280;62146;53.232;-1.304;2023-04-21T05:47:19;100486.53;;;9.62;100.00
73817;BME280;62146;53.232;-1.304;2023-04-21T05:49:46;100483.09;;;9.62;100.00
73817;BME280;62146;53.232;-1.304;2023-04-21T05:52:15;100475.72;;;9.63;100.00
73817;BME280;62146;53.232;-1.304;2023-04-21T05:54:43;100478.38;;;9.63;100.00
73817;BME280;62146;53.232;-1.304;2023-04-21T05:57:09;100476.28;;;9.65;100.00
73817;BME280;62146;53.232;-1.304;2023-04-21T05:59:36;100468.69;;;9.69;100.00
73817;BME280;62146;53.232;-1.304;2023-04-21T06:02:03;100466.28;;;9.67;100.00
73817;BME280;62146;53.232;-1.304;2023-04-21T06:04:29;100438.97;;;9.67;100.00
73817;BME280;62146;53.232;-1.304;2023-04-21T06:06:56;100432.41;;;9.69;100.00
73817;BME280;62146;53.232;-1.304;2023-04-21T06:09:23;100450.72;;;9.71;100.00
73817;BME280;62146;53.232;-1.304;2023-04-21T06:11:50;100448.66;;;9.73;100.00
73817;BME280;62146;53.232;-1.304;2023-04-21T06:14:16;100447.06;;;9.72;100.00
73817;BME280;62146;53.232;-1.304;2023-04-21T06:16:43;100455.56;;;9.74;100.00
73817;BME280;62146;53.232;-1.304;2023-04-21T06:19:10;100445.75;;;9.74;100.00
73817;BME280;62146;53.232;-1.304;2023-04-21T06:21:36;100428.84;;;9.75;100.00
73817;BME280;62146;53.232;-1.304;2023-04-21T06:24:03;100438.41;;;9.76;100.00
73817;BME280;62146;53.232;-1.304;2023-04-21T06:26:29;100434.72;;;9.77;100.00
73817;BME280;62146;53.232;-1.304;2023-04-21T06:28:57;100428.38;;;9.78;100.00
73817;BME280;62146;53.232;-1.304;2023-04-21T06:31:24;100434.25;;;9.80;100.00
73817;BME280;62146;53.232;-1.304;2023-04-21T06:33:50;100422.06;;;9.79;100.00
73817;BME280;62146;53.232;-1.304;2023-04-21T06:36:17;100416.75;;;9.79;100.00
73817;BME280;62146;53.232;-1.304;2023-04-21T06:38:43;100411.22;;;9.81;100.00
73817;BME280;62146;53.232;-1.304;2023-04-21T06:41:10;100407.53;;;9.82;100.00
73817;BME280;62146;53.232;-1.304;2023-04-21T06:43:37;100404.66;;;9.83;100.00
73817;BME280;62146;53.232;-1.304;2023-04-21T06:46:03;100401.22;;;9.83;100.00
73817;BME280;62146;53.232;-1.304;2023-04-21T06:48:30;100406.50;;;9.83;100.00
73817;BME280;62146;53.232;-1.304;2023-04-21T06:50:57;100401.22;;;9.83;100.00
73817;BME280;62146;53.232;-1.304;2023-04-21T06:53:24;100403.59;;;9.84;100.00
73817;BME280;62146;53.232;-1.304;2023-04-21T06:55:51;100398.31;;;9.84;100.00
73817;BME280;62146;53.232;-1.304;2023-04-21T06:58:18;100400.75;;;9.86;100.00
73817;BME280;62146;53.232;-1.304;2023-04-21T07:00:46;100394.63;;;9.85;100.00
73817;BME280;62146;53.232;-1.304;2023-04-21T07:03:13;100393.59;;;9.86;100.00
73817;BME280;62146;53.232;-1.304;2023-04-21T07:05:40;100388.31;;;9.86;100.00
73817;BME280;62146;53.232;-1.304;2023-04-21T07:08:06;100380.34;;;9.86;100.00
73817;BME280;62146;53.232;-1.304;2023-04-21T07:10:33;100385.66;;;9.86;100.00
73817;BME280;62146;53.232;-1.304;2023-04-21T07:13:00;100368.13;;;9.85;100.00
73817;BME280;62146;53.232;-1.304;2023-04-21T07:15:29;100363.66;;;9.86;100.00
73817;BME280;62146;53.232;-1.304;2023-04-21T07:17:56;100381.38;;;9.85;100.00
73817;BME280;62146;53.232;-1.304;2023-04-21T07:20:24;100400.75;;;9.86;100.00
73817;BME280;62146;53.232;-1.304;2023-04-21T07:22:50;100408.09;;;9.84;100.00
73817;BME280;62146;53.232;-1.304;2023-04-21T07:25:17;100408.91;;;9.84;100.00
73817;BME280;62146;53.232;-1.304;2023-04-21T07:27:44;100396.47;;;9.85;100.00
73817;BME280;62146;53.232;-1.304;2023-04-21T07:30:10;100400.97;;;9.84;100.00
73817;BME280;62146;53.232;-1.304;2023-04-21T07:32:37;100393.81;;;9.85;100.00
73817;BME280;62146;53.232;-1.304;2023-04-21T07:35:05;100394.44;;;9.87;100.00
73817;BME280;62146;53.232;-1.304;2023-04-21T07:37:31;100389.13;;;9.87;100.00
73817;BME280;62146;53.232;-1.304;2023-04-21T07:39:58;100386.25;;;9.88;100.00
73817;BME280;62146;53.232;-1.304;2023-04-21T07:42:25;100390.50;;;9.89;100.00
73817;BME280;62146;53.232;-1.304;2023-04-21T07:44:52;100378.28;;;9.88;100.00
73817;BME280;62146;53.232;-1.304;2023-04-21T07:47:19;100385.19;;;9.89;100.00
73817;BME280;62146;53.232;-1.304;2023-04-21T07:49:45;100379.09;;;9.89;100.00
73817;BME280;62146;53.232;-1.304;2023-04-21T07:52:12;100373.00;;;9.88;100.00
73817;BME280;62146;53.232;-1.304;2023-04-21T07:54:39;100378.03;;;9.89;100.00
73817;BME280;62146;53.232;-1.304;2023-04-21T07:57:05;100374.59;;;9.89;100.00
73817;BME280;62146;53.232;-1.304;2023-04-21T07:59:32;100368.28;;;9.90;100.00
73817;BME280;62146;53.232;-1.304;2023-04-21T08:01:59;100361.13;;;9.90;100.00
73817;BME280;62146;53.232;-1.304;2023-04-21T08:04:26;100378.88;;;9.90;100.00
73817;BME280;62146;53.232;-1.304;2023-04-21T08:06:53;100367.44;;;9.89;100.00
73817;BME280;62146;53.232;-1.304;2023-04-21T08:09:19;100379.69;;;9.90;100.00
73817;BME280;62146;53.232;-1.304;2023-04-21T08:11:46;100369.88;;;9.91;100.00
73817;BME280;62146;53.232;-1.304;2023-04-21T08:14:13;100360.88;;;9.92;100.00
73817;BME280;62146;53.232;-1.304;2023-04-21T08:16:40;100359.03;;;9.92;100.00
73817;BME280;62146;53.232;-1.304;2023-04-21T08:19:08;100364.13;;;9.94;100.00
73817;BME280;62146;53.232;-1.304;2023-04-21T08:21:35;100356.72;;;9.96;100.00
73817;BME280;62146;53.232;-1.304;2023-04-21T08:24:02;100371.03;;;9.95;100.00
73817;BME280;62146;53.232;-1.304;2023-04-21T08:26:29;100370.56;;;9.98;100.00
73817;BME280;62146;53.232;-1.304;2023-04-21T08:28:56;100365.25;;;9.98;100.00
73817;BME280;62146;53.232;-1.304;2023-04-21T08:31:23;100385.41;;;9.99;100.00
73817;BME280;62146;53.232;-1.304;2023-04-21T08:33:49;100376.41;;;10.00;100.00
73817;BME280;62146;53.232;-1.304;2023-04-21T08:36:27;100378.00;;;10.01;100.00
73817;BME280;62146;53.232;-1.304;2023-04-21T08:38:56;100381.47;;;10.01;100.00
73817;BME280;62146;53.232;-1.304;2023-04-21T08:41:23;100368.00;;;10.03;100.00
73817;BME280;62146;53.232;-1.304;2023-04-21T08:43:50;100371.44;;;10.03;100.00
73817;BME280;62146;53.232;-1.304;2023-04-21T08:46:17;100366.94;;;10.04;100.00
73817;BME280;62146;53.232;-1.304;2023-04-21T08:48:45;100367.75;;;10.04;100.00
73817;BME280;62146;53.232;-1.304;2023-04-21T08:51:20;100372.56;;;10.07;100.00
73817;BME280;62146;53.232;-1.304;2023-04-21T08:53:46;100376.03;;;10.08;100.00
73817;BME280;62146;53.232;-1.304;2023-04-21T08:56:13;100383.97;;;10.08;100.00
73817;BME280;62146;53.232;-1.304;2023-04-21T08:58:40;100373.38;;;10.08;100.00
73817;BME280;62146;53.232;-1.304;2023-04-21T09:01:07;100380.28;;;10.09;100.00
73817;BME280;62146;53.232;-1.304;2023-04-21T09:03:34;100375.81;;;10.09;100.00
73817;BME280;62146;53.232;-1.304;2023-04-21T09:06:04;100372.13;;;10.10;100.00
73817;BME280;62146;53.232;-1.304;2023-04-21T09:08:32;100371.31;;;10.10;100.00
73817;BME280;62146;53.232;-1.304;2023-04-21T09:10:59;100375.31;;;10.12;100.00
73817;BME280;62146;53.232;-1.304;2023-04-21T09:13:33;100368.66;;;10.10;100.00
73817;BME280;62146;53.232;-1.304;2023-04-21T09:16:01;100366.56;;;10.12;100.00
73817;BME280;62146;53.232;-1.304;2023-04-21T09:18:32;100363.91;;;10.12;100.00
73817;BME280;62146;53.232;-1.304;2023-04-21T09:21:14;100360.72;;;10.10;100.00
73817;BME280;62146;53.232;-1.304;2023-04-21T09:23:41;100360.47;;;10.11;100.00
73817;BME280;62146;53.232;-1.304;2023-04-21T09:26:08;100363.91;;;10.12;100.00
73817;BME280;62146;53.232;-1.304;2023-04-21T09:28:35;100363.69;;;10.13;100.00
73817;BME280;62146;53.232;-1.304;2023-04-21T09:31:02;100364.50;;;10.14;100.00
73817;BME280;62146;53.232;-1.304;2023-04-21T09:33:32;100361.84;;;10.14;100.00
73817;BME280;62146;53.232;-1.304;2023-04-21T09:36:00;100373.00;;;10.16;100.00
73817;BME280;62146;53.232;-1.304;2023-04-21T09:38:27;100373.78;;;10.16;100.00
73817;BME280;62146;53.232;-1.304;2023-04-21T09:40:57;100378.06;;;10.17;100.00
73817;BME280;62146;53.232;-1.304;2023-04-21T09:43:24;100383.59;;;10.16;100.00
73817;BME280;62146;53.232;-1.304;2023-04-21T09:45:53;100383.94;;;10.19;100.00
73817;BME280;62146;53.232;-1.304;2023-04-21T09:48:21;100381.03;;;10.20;100.00
73817;BME280;62146;53.232;-1.304;2023-04-21T09:50:52;100386.34;;;10.20;100.00
73817;BME280;62146;53.232;-1.304;2023-04-21T09:53:40;100378.38;;;10.20;100.00
73817;BME280;62146;53.232;-1.304;2023-04-21T09:56:11;100381.88;;;10.21;100.00
73817;BME280;62146;53.232;-1.304;2023-04-21T09:58:45;100373.91;;;10.21;100.00
73817;BME280;62146;53.232;-1.304;2023-04-21T10:01:14;100389.56;;;10.22;100.00
73817;BME280;62146;53.232;-1.304;2023-04-21T10:03:43;100382.66;;;10.21;100.00
73817;BME280;62146;53.232;-1.304;2023-04-21T10:06:12;100378.97;;;10.22;100.00
73817;BME280;62146;53.232;-1.304;2023-04-21T10:08:39;100372.84;;;10.22;100.00
73817;BME280;62146;53.232;-1.304;2023-04-21T10:11:07;100373.41;;;10.24;100.00
73817;BME280;62146;53.232;-1.304;2023-04-21T10:13:34;100378.25;;;10.27;100.00
73817;BME280;62146;53.232;-1.304;2023-04-21T10:16:06;100375.84;;;10.25;100.00
73817;BME280;62146;53.232;-1.304;2023-04-21T10:18:35;100372.94;;;10.27;100.00
73817;BME280;62146;53.232;-1.304;2023-04-21T10:21:17;100373.75;;;10.27;100.00
73817;BME280;62146;53.232;-1.304;2023-04-21T10:23:47;100368.56;;;10.32;100.00
73817;BME280;62146;53.232;-1.304;2023-04-21T10:26:33;100361.97;;;10.35;100.00
73817;BME280;62146;53.232;-1.304;2023-04-21T10:29:00;100364.72;;;10.40;100.00
73817;BME280;62146;53.232;-1.304;2023-04-21T10:36:33;100351.63;;;10.49;100.00
73817;BME280;62146;53.232;-1.304;2023-04-21T10:39:03;100353.53;;;10.54;100.00
73817;BME280;62146;53.232;-1.304;2023-04-21T10:41:33;100349.38;;;10.58;100.00
73817;BME280;62146;53.232;-1.304;2023-04-21T10:44:10;100343.59;;;10.61;100.00
73817;BME280;62146;53.232;-1.304;2023-04-21T10:46:39;100340.47;;;10.64;100.00
73817;BME280;62146;53.232;-1.304;2023-04-21T10:49:11;100341.81;;;10.66;100.00
73817;BME280;62146;53.232;-1.304;2023-04-21T10:54:35;100345.63;;;10.70;100.00
73817;BME280;62146;53.232;-1.304;2023-04-21T10:57:05;100337.41;;;10.71;100.00
73817;BME280;62146;53.232;-1.304;2023-04-21T10:59:34;100345.38;;;10.71;100.00
73817;BME280;62146;53.232;-1.304;2023-04-21T11:02:02;100350.19;;;10.74;100.00
73817;BME280;62146;53.232;-1.304;2023-04-21T11:04:30;100344.63;;;10.76;100.00
73817;BME280;62146;53.232;-1.304;2023-04-21T11:07:08;100332.97;;;10.77;100.00
73817;BME280;62146;53.232;-1.304;2023-04-21T11:09:37;100337.00;;;10.79;100.00
73817;BME280;62146;53.232;-1.304;2023-04-21T11:12:15;100333.28;;;10.80;100.00
73817;BME280;62146;53.232;-1.304;2023-04-21T11:14:44;100331.75;;;10.84;100.00
73817;BME280;62146;53.232;-1.304;2023-04-21T11:17:15;100337.88;;;10.85;100.00
73817;BME280;62146;53.232;-1.304;2023-04-21T11:19:50;100330.72;;;10.85;100.00
73817;BME280;62146;53.232;-1.304;2023-04-21T11:22:23;100332.56;;;10.85;100.00
73817;BME280;62146;53.232;-1.304;2023-04-21T11:24:55;100322.19;;;10.83;100.00
73817;BME280;62146;53.232;-1.304;2023-04-21T11:27:25;100320.34;;;10.84;100.00
73817;BME280;62146;53.232;-1.304;2023-04-21T11:29:52;100324.59;;;10.85;100.00
73817;BME280;62146;53.232;-1.304;2023-04-21T11:32:19;100326.22;;;10.86;100.00
73817;BME280;62146;53.232;-1.304;2023-04-21T11:34:46;100323.56;;;10.86;100.00
73817;BME280;62146;53.232;-1.304;2023-04-21T11:37:15;100329.91;;;10.85;100.00
73817;BME280;62146;53.232;-1.304;2023-04-21T11:39:43;100329.91;;;10.85;100.00
73817;BME280;62146;53.232;-1.304;2023-04-21T11:42:10;100332.00;;;10.83;100.00
73817;BME280;62146;53.232;-1.304;2023-04-21T11:44:39;100332.81;;;10.83;100.00
73817;BME280;62146;53.232;-1.304;2023-04-21T11:47:17;100324.06;;;10.83;100.00
73817;BME280;62146;53.232;-1.304;2023-04-21T11:49:46;100324.06;;;10.83;100.00
73817;BME280;62146;53.232;-1.304;2023-04-21T11:52:30;100324.59;;;10.85;100.00
73817;BME280;62146;53.232;-1.304;2023-04-21T11:55:11;100319.88;;;10.87;100.00
73817;BME280;62146;53.232;-1.304;2023-04-21T11:57:40;100319.13;;;10.91;100.00
73817;BME280;62146;53.232;-1.304;2023-04-21T12:00:09;100326.69;;;10.99;100.00
73817;BME280;62146;53.232;-1.304;2023-04-21T12:02:42;100330.50;;;11.08;100.00
73817;BME280;62146;53.232;-1.304;2023-04-21T12:05:11;100332.53;;;11.17;100.00
73817;BME280;62146;53.232;-1.304;2023-04-21T12:07:41;100326.53;;;11.26;100.00
73817;BME280;62146;53.232;-1.304;2023-04-21T12:12:38;100329.00;;;11.49;100.00
73817;BME280;62146;53.232;-1.304;2023-04-21T12:15:05;100323.25;;;11.57;100.00
73817;BME280;62146;53.232;-1.304;2023-04-21T12:17:46;100327.16;;;11.71;100.00
73817;BME280;62146;53.232;-1.304;2023-04-21T12:20:18;100325.41;;;11.81;100.00
73817;BME280;62146;53.232;-1.304;2023-04-21T12:22:47;100323.13;;;11.89;100.00
73817;BME280;62146;53.232;-1.304;2023-04-21T12:25:14;100323.47;;;11.98;100.00
73817;BME280;62146;53.232;-1.304;2023-04-21T12:27:51;100329.94;;;12.06;100.00
73817;BME280;62146;53.232;-1.304;2023-04-21T12:30:18;100321.50;;;12.14;100.00
73817;BME280;62146;53.232;-1.304;2023-04-21T12:32:45;100318.69;;;12.26;100.00
73817;BME280;62146;53.232;-1.304;2023-04-21T12:35:14;100316.66;;;12.37;100.00
73817;BME280;62146;53.232;-1.304;2023-04-21T12:37:40;100325.31;;;12.49;100.00
73817;BME280;62146;53.232;-1.304;2023-04-21T12:40:07;100325.94;;;12.61;100.00
73817;BME280;62146;53.232;-1.304;2023-04-21T12:42:35;100318.78;;;12.66;100.00
73817;BME280;62146;53.232;-1.304;2023-04-21T12:45:04;100313.03;;;12.74;100.00
73817;BME280;62146;53.232;-1.304;2023-04-21T12:47:31;100321.91;;;12.85;100.00
73817;BME280;62146;53.232;-1.304;2023-04-21T12:49:57;100307.84;;;12.94;100.00